Detall de PIREP

Printer-friendly versionPDF version

[2011/12/03 18:50:00]
Flight IATA:CT1001
Pilot Number:026
Company ICAO:CAT
Aircraft Type:DC85/A
PAX:132
Departing Airport: EGGD
Destination Airport: LFMP
Alternate Airport:LFBO
Online: VATSIM
Route:EXMOR DCT NOTRO UN90 KORER UM616 TUPAR UM184 CNA UN863 SECHE UT24 GAI/N0290F170 G36 ORBIL
Flight Level:F350
No Slew and time accel
No pause
Crash detect
Detect pilot in Cockpit between each 30 and 45 minutes
18:50 Zero fuel Weight: 179007 Lbs, Fuel Weight: 36007 Lbs
18:50 VATSIM:EGGD 031820Z 26013KT 9999 FEW016 BKN030 08/05 Q1005
18:50 VATSIM:LFMP 031830Z AUTO 24003KT 9999 OVC100 12/05 Q1022
18:50 VOICE CATALONIAN / OPENSKIES 2011 FLIGHT ID CAT002
19:01 Parking Brakes off
19:30 Take-off
19:30 Take off Weight: 213270 Lbs
19:30 Wind: 266º @ 014 Knots Heading: 265º
19:30 POS N51º 22´ 55´´ W002º 43´ 53´´
19:30 Gear Up: 169 Knots
19:30 Flaps:2 at 169 Knots
19:31 Flaps:1 at166 Knots
19:33 Flaps:0 at 198 Knots
19:45 Wind:261º@042 Knots Heading: 178º Ground Speed: 368 Knots Altitude 25980 ft
19:55 TOC
19:55 Fuel Weight: 27986 Lb
20:00 Wind:251º@039 Knots Heading: 171º Ground Speed: 419 Knots Altitude 34931 ft
20:15 Wind:279º@032 Knots Heading: 139º Ground Speed: 501 Knots Altitude 35022 ft
20:30 Wind:239º@027 Knots Heading: 156º Ground Speed: 469 Knots Altitude 35111 ft
20:36 TOD
20:36 Fuel Weight: 19388 Lb
20:45 Wind:247º@026 Knots Heading: 120º Ground Speed: 416 Knots Altitude 19589 ft
21:00 Wind:289º@008 Knots Heading: 149º Ground Speed: 268 Knots Altitude 5308 ft
21:06 Flaps:1 at 151 Knots
21:07 Flaps:2 at 160 Knots
21:08 Flaps:3 at 167 Knots
21:08 Flaps:4 at 166 Knots
21:08 Flaps:3 at 166 Knots
21:08 Gear Down: 165 Knots
21:08 Flaps:4 at 164 Knots
21:09 Flaps:5 at 138 Knots
21:10 TouchDown:Rate -340 ft/min Speed: 123 Knots
21:10 VATSIM:LFMP 032100Z AUTO 25007KT 9999 FEW100 SCT120 BKN140 11/04 Q1022
21:10 Land
21:10 Wind:292º@004 Knots
21:10 Heading: 330º
21:10 Flight Duration: 01:40
21:10 Landing Weight: 194359 Lbs
21:10 POS N42º 44´ 45´´ E002º 52´ 06´´
21:14 Parking brakes on
21:14 Block to Block Duration: 02:14
21:14 Final Fuel: 14949 Lbls
21:14 Spent Fuel: 21058 Lbls
21:14 Flight Length: 650 NM
21:14 TOD Land Length: 188 NM

Exportar CSV

Powered by Drupal - Modified by Danger4k